sensor_id;sensor_type;location;lat;lon;timestamp;P1;durP1;ratioP1;P2;durP2;ratioP2
75459;SDS011;64039;53.060;9.342;2023-02-15T00:01:38;33.80;;;15.32;;
75459;SDS011;64039;53.060;9.342;2023-02-15T00:04:04;42.88;;;17.38;;
75459;SDS011;64039;53.060;9.342;2023-02-15T00:06:31;31.20;;;16.02;;
75459;SDS011;64039;53.060;9.342;2023-02-15T00:08:58;37.03;;;15.65;;
75459;SDS011;64039;53.060;9.342;2023-02-15T00:11:24;36.13;;;15.57;;
75459;SDS011;64039;53.060;9.342;2023-02-15T00:14:09;31.05;;;15.30;;
75459;SDS011;64039;53.060;9.342;2023-02-15T00:16:39;33.70;;;15.88;;
75459;SDS011;64039;53.060;9.342;2023-02-15T00:19:07;33.22;;;15.45;;
75459;SDS011;64039;53.060;9.342;2023-02-15T00:21:33;29.40;;;15.55;;
75459;SDS011;64039;53.060;9.342;2023-02-15T00:24:00;30.67;;;16.08;;
75459;SDS011;64039;53.060;9.342;2023-02-15T00:26:27;38.58;;;15.95;;
75459;SDS011;64039;53.060;9.342;2023-02-15T00:28:53;38.20;;;14.93;;
75459;SDS011;64039;53.060;9.342;2023-02-15T00:31:19;42.17;;;15.40;;
75459;SDS011;64039;53.060;9.342;2023-02-15T00:33:45;33.15;;;13.95;;
75459;SDS011;64039;53.060;9.342;2023-02-15T00:36:11;29.83;;;15.07;;
75459;SDS011;64039;53.060;9.342;2023-02-15T00:38:38;31.60;;;14.52;;
75459;SDS011;64039;53.060;9.342;2023-02-15T00:41:05;33.75;;;15.25;;
75459;SDS011;64039;53.060;9.342;2023-02-15T00:43:32;26.48;;;14.30;;
75459;SDS011;64039;53.060;9.342;2023-02-15T00:45:58;33.00;;;15.40;;
75459;SDS011;64039;53.060;9.342;2023-02-15T00:48:24;34.95;;;14.35;;
75459;SDS011;64039;53.060;9.342;2023-02-15T00:50:51;35.83;;;15.02;;
75459;SDS011;64039;53.060;9.342;2023-02-15T00:53:18;32.65;;;14.23;;
75459;SDS011;64039;53.060;9.342;2023-02-15T00:55:43;24.27;;;12.80;;
75459;SDS011;64039;53.060;9.342;2023-02-15T00:58:09;42.55;;;13.63;;
75459;SDS011;64039;53.060;9.342;2023-02-15T01:00:36;35.28;;;13.52;;
75459;SDS011;64039;53.060;9.342;2023-02-15T01:03:02;29.08;;;13.57;;
75459;SDS011;64039;53.060;9.342;2023-02-15T01:05:29;28.77;;;14.68;;
75459;SDS011;64039;53.060;9.342;2023-02-15T01:07:55;24.95;;;13.30;;
75459;SDS011;64039;53.060;9.342;2023-02-15T01:10:21;34.95;;;13.43;;
75459;SDS011;64039;53.060;9.342;2023-02-15T01:12:46;23.60;;;13.43;;
75459;SDS011;64039;53.060;9.342;2023-02-15T01:15:11;31.15;;;14.00;;
75459;SDS011;64039;53.060;9.342;2023-02-15T01:17:37;28.52;;;14.32;;
75459;SDS011;64039;53.060;9.342;2023-02-15T01:20:02;25.13;;;13.38;;
75459;SDS011;64039;53.060;9.342;2023-02-15T01:22:28;22.65;;;12.82;;
75459;SDS011;64039;53.060;9.342;2023-02-15T01:24:54;25.85;;;12.38;;
75459;SDS011;64039;53.060;9.342;2023-02-15T01:27:19;22.85;;;12.48;;
75459;SDS011;64039;53.060;9.342;2023-02-15T01:29:45;34.13;;;12.70;;
75459;SDS011;64039;53.060;9.342;2023-02-15T01:32:10;21.00;;;11.98;;
75459;SDS011;64039;53.060;9.342;2023-02-15T01:34:35;21.00;;;12.60;;
75459;SDS011;64039;53.060;9.342;2023-02-15T01:37:01;22.80;;;11.90;;
75459;SDS011;64039;53.060;9.342;2023-02-15T01:39:26;19.90;;;11.38;;
75459;SDS011;64039;53.060;9.342;2023-02-15T01:41:52;20.20;;;12.23;;
75459;SDS011;64039;53.060;9.342;2023-02-15T01:47:09;20.92;;;11.40;;
75459;SDS011;64039;53.060;9.342;2023-02-15T01:49:37;23.13;;;12.13;;
75459;SDS011;64039;53.060;9.342;2023-02-15T01:52:06;19.80;;;11.98;;
75459;SDS011;64039;53.060;9.342;2023-02-15T01:54:33;24.52;;;12.57;;
75459;SDS011;64039;53.060;9.342;2023-02-15T01:57:05;19.75;;;12.35;;
75459;SDS011;64039;53.060;9.342;2023-02-15T01:59:35;20.23;;;11.50;;
75459;SDS011;64039;53.060;9.342;2023-02-15T02:02:04;18.45;;;11.05;;
75459;SDS011;64039;53.060;9.342;2023-02-15T02:04:38;25.15;;;12.23;;
75459;SDS011;64039;53.060;9.342;2023-02-15T02:07:13;19.05;;;10.68;;
75459;SDS011;64039;53.060;9.342;2023-02-15T02:09:42;19.25;;;11.40;;
75459;SDS011;64039;53.060;9.342;2023-02-15T02:12:08;21.08;;;11.10;;
75459;SDS011;64039;53.060;9.342;2023-02-15T02:14:34;19.77;;;11.07;;
75459;SDS011;64039;53.060;9.342;2023-02-15T02:20:16;22.77;;;11.10;;
75459;SDS011;64039;53.060;9.342;2023-02-15T02:31:18;16.00;;;9.52;;
75459;SDS011;64039;53.060;9.342;2023-02-15T02:42:06;31.35;;;10.00;;
75459;SDS011;64039;53.060;9.342;2023-02-15T02:44:46;15.95;;;9.63;;
75459;SDS011;64039;53.060;9.342;2023-02-15T02:47:29;20.55;;;10.77;;
75459;SDS011;64039;53.060;9.342;2023-02-15T02:50:03;23.75;;;9.55;;
75459;SDS011;64039;53.060;9.342;2023-02-15T02:52:38;17.95;;;10.10;;
75459;SDS011;64039;53.060;9.342;2023-02-15T02:55:25;22.00;;;9.43;;
75459;SDS011;64039;53.060;9.342;2023-02-15T03:01:19;20.52;;;10.25;;
75459;SDS011;64039;53.060;9.342;2023-02-15T03:03:52;15.80;;;9.85;;
75459;SDS011;64039;53.060;9.342;2023-02-15T03:09:22;16.95;;;9.70;;
75459;SDS011;64039;53.060;9.342;2023-02-15T03:11:59;15.35;;;9.27;;
75459;SDS011;64039;53.060;9.342;2023-02-15T03:14:26;14.57;;;9.40;;
75459;SDS011;64039;53.060;9.342;2023-02-15T03:16:52;16.52;;;10.05;;
75459;SDS011;64039;53.060;9.342;2023-02-15T03:19:30;15.13;;;9.57;;
75459;SDS011;64039;53.060;9.342;2023-02-15T03:22:12;15.80;;;9.70;;
75459;SDS011;64039;53.060;9.342;2023-02-15T03:24:49;17.45;;;9.35;;
75459;SDS011;64039;53.060;9.342;2023-02-15T03:27:35;15.27;;;9.27;;
75459;SDS011;64039;53.060;9.342;2023-02-15T03:30:05;19.60;;;9.75;;
75459;SDS011;64039;53.060;9.342;2023-02-15T03:32:33;16.35;;;9.88;;
75459;SDS011;64039;53.060;9.342;2023-02-15T03:35:02;20.70;;;9.95;;
75459;SDS011;64039;53.060;9.342;2023-02-15T03:37:41;14.85;;;8.77;;
75459;SDS011;64039;53.060;9.342;2023-02-15T03:46:43;13.80;;;8.65;;
75459;SDS011;64039;53.060;9.342;2023-02-15T03:49:30;26.33;;;8.95;;
75459;SDS011;64039;53.060;9.342;2023-02-15T03:52:04;13.13;;;8.25;;
75459;SDS011;64039;53.060;9.342;2023-02-15T03:54:33;15.77;;;8.38;;
75459;SDS011;64039;53.060;9.342;2023-02-15T04:00:02;18.70;;;8.80;;
75459;SDS011;64039;53.060;9.342;2023-02-15T04:05:42;16.75;;;10.38;;
75459;SDS011;64039;53.060;9.342;2023-02-15T04:08:09;15.90;;;9.60;;
75459;SDS011;64039;53.060;9.342;2023-02-15T04:10:35;18.10;;;9.52;;
75459;SDS011;64039;53.060;9.342;2023-02-15T04:13:33;19.15;;;9.73;;
75459;SDS011;64039;53.060;9.342;2023-02-15T04:15:59;13.35;;;8.75;;
75459;SDS011;64039;53.060;9.342;2023-02-15T04:18:31;15.00;;;8.80;;
75459;SDS011;64039;53.060;9.342;2023-02-15T04:21:17;13.70;;;8.20;;
75459;SDS011;64039;53.060;9.342;2023-02-15T04:24:02;14.10;;;8.70;;
75459;SDS011;64039;53.060;9.342;2023-02-15T04:26:46;15.98;;;9.30;;
75459;SDS011;64039;53.060;9.342;2023-02-15T04:29:18;13.48;;;8.45;;
75459;SDS011;64039;53.060;9.342;2023-02-15T04:31:45;17.02;;;8.82;;
75459;SDS011;64039;53.060;9.342;2023-02-15T04:34:11;14.25;;;8.77;;
75459;SDS011;64039;53.060;9.342;2023-02-15T04:36:39;15.85;;;8.55;;
75459;SDS011;64039;53.060;9.342;2023-02-15T04:39:05;21.20;;;8.55;;
75459;SDS011;64039;53.060;9.342;2023-02-15T04:41:32;17.17;;;8.10;;
75459;SDS011;64039;53.060;9.342;2023-02-15T04:43:58;13.93;;;8.05;;
75459;SDS011;64039;53.060;9.342;2023-02-15T04:46:24;17.48;;;8.80;;
75459;SDS011;64039;53.060;9.342;2023-02-15T04:48:50;13.35;;;8.38;;
75459;SDS011;64039;53.060;9.342;2023-02-15T04:51:15;14.50;;;8.25;;
75459;SDS011;64039;53.060;9.342;2023-02-15T04:53:41;18.98;;;8.98;;
75459;SDS011;64039;53.060;9.342;2023-02-15T04:56:06;19.58;;;9.52;;
75459;SDS011;64039;53.060;9.342;2023-02-15T04:58:32;14.10;;;8.77;;
75459;SDS011;64039;53.060;9.342;2023-02-15T05:00:57;16.27;;;8.07;;
75459;SDS011;64039;53.060;9.342;2023-02-15T05:03:23;16.08;;;8.35;;
75459;SDS011;64039;53.060;9.342;2023-02-15T05:05:50;11.02;;;7.55;;
75459;SDS011;64039;53.060;9.342;2023-02-15T05:08:16;14.77;;;8.15;;
75459;SDS011;64039;53.060;9.342;2023-02-15T05:10:41;11.45;;;7.40;;
75459;SDS011;64039;53.060;9.342;2023-02-15T05:13:07;15.23;;;7.82;;
75459;SDS011;64039;53.060;9.342;2023-02-15T05:15:32;13.10;;;7.78;;
75459;SDS011;64039;53.060;9.342;2023-02-15T05:17:57;10.95;;;7.72;;
75459;SDS011;64039;53.060;9.342;2023-02-15T05:20:23;11.90;;;7.80;;
75459;SDS011;64039;53.060;9.342;2023-02-15T05:22:49;14.70;;;7.65;;
75459;SDS011;64039;53.060;9.342;2023-02-15T05:25:18;14.40;;;7.70;;
75459;SDS011;64039;53.060;9.342;2023-02-15T05:28:02;15.63;;;7.97;;
75459;SDS011;64039;53.060;9.342;2023-02-15T05:30:50;17.55;;;8.00;;
75459;SDS011;64039;53.060;9.342;2023-02-15T05:33:27;12.98;;;8.07;;
75459;SDS011;64039;53.060;9.342;2023-02-15T05:35:53;11.02;;;7.25;;
75459;SDS011;64039;53.060;9.342;2023-02-15T05:38:18;12.30;;;7.90;;
75459;SDS011;64039;53.060;9.342;2023-02-15T05:40:44;11.27;;;7.88;;
75459;SDS011;64039;53.060;9.342;2023-02-15T05:43:09;13.35;;;8.20;;
75459;SDS011;64039;53.060;9.342;2023-02-15T05:45:35;10.68;;;7.03;;
75459;SDS011;64039;53.060;9.342;2023-02-15T05:48:00;12.88;;;8.10;;
75459;SDS011;64039;53.060;9.342;2023-02-15T05:50:26;15.65;;;9.43;;
75459;SDS011;64039;53.060;9.342;2023-02-15T05:52:51;17.60;;;9.00;;
75459;SDS011;64039;53.060;9.342;2023-02-15T05:55:17;12.98;;;8.20;;
75459;SDS011;64039;53.060;9.342;2023-02-15T05:57:43;13.25;;;7.82;;
75459;SDS011;64039;53.060;9.342;2023-02-15T06:00:09;16.52;;;8.18;;
75459;SDS011;64039;53.060;9.342;2023-02-15T06:02:35;11.95;;;7.78;;
75459;SDS011;64039;53.060;9.342;2023-02-15T06:05:02;11.40;;;7.63;;
75459;SDS011;64039;53.060;9.342;2023-02-15T06:07:28;11.32;;;7.00;;
75459;SDS011;64039;53.060;9.342;2023-02-15T06:09:54;10.25;;;7.43;;
75459;SDS011;64039;53.060;9.342;2023-02-15T06:12:19;12.50;;;8.00;;
75459;SDS011;64039;53.060;9.342;2023-02-15T06:14:45;12.23;;;7.70;;
75459;SDS011;64039;53.060;9.342;2023-02-15T06:17:10;12.90;;;8.23;;
75459;SDS011;64039;53.060;9.342;2023-02-15T06:19:36;15.63;;;7.82;;
75459;SDS011;64039;53.060;9.342;2023-02-15T06:22:01;13.63;;;7.80;;
75459;SDS011;64039;53.060;9.342;2023-02-15T06:24:27;11.70;;;7.90;;
75459;SDS011;64039;53.060;9.342;2023-02-15T06:26:53;12.23;;;8.10;;
75459;SDS011;64039;53.060;9.342;2023-02-15T06:29:19;12.32;;;7.43;;
75459;SDS011;64039;53.060;9.342;2023-02-15T06:31:44;11.95;;;7.60;;
75459;SDS011;64039;53.060;9.342;2023-02-15T06:34:10;12.90;;;8.15;;
75459;SDS011;64039;53.060;9.342;2023-02-15T06:36:37;12.10;;;7.90;;
75459;SDS011;64039;53.060;9.342;2023-02-15T06:39:03;12.40;;;7.95;;
75459;SDS011;64039;53.060;9.342;2023-02-15T06:41:29;13.10;;;8.23;;
75459;SDS011;64039;53.060;9.342;2023-02-15T06:43:55;12.65;;;8.15;;
75459;SDS011;64039;53.060;9.342;2023-02-15T06:46:21;10.57;;;7.40;;
75459;SDS011;64039;53.060;9.342;2023-02-15T06:48:46;12.80;;;8.10;;
75459;SDS011;64039;53.060;9.342;2023-02-15T06:51:12;10.48;;;7.13;;
75459;SDS011;64039;53.060;9.342;2023-02-15T06:53:38;12.23;;;8.05;;
75459;SDS011;64039;53.060;9.342;2023-02-15T06:56:06;11.02;;;7.28;;
75459;SDS011;64039;53.060;9.342;2023-02-15T06:58:35;12.00;;;7.40;;
75459;SDS011;64039;53.060;9.342;2023-02-15T07:01:03;10.80;;;7.18;;
75459;SDS011;64039;53.060;9.342;2023-02-15T07:03:30;10.50;;;6.68;;
75459;SDS011;64039;53.060;9.342;2023-02-15T07:05:56;13.23;;;6.97;;
75459;SDS011;64039;53.060;9.342;2023-02-15T07:08:24;11.23;;;7.30;;
75459;SDS011;64039;53.060;9.342;2023-02-15T07:10:50;10.20;;;7.20;;
75459;SDS011;64039;53.060;9.342;2023-02-15T07:13:17;9.27;;;6.78;;
75459;SDS011;64039;53.060;9.342;2023-02-15T07:15:43;10.52;;;6.95;;
75459;SDS011;64039;53.060;9.342;2023-02-15T07:18:09;10.35;;;7.20;;
75459;SDS011;64039;53.060;9.342;2023-02-15T07:20:35;11.32;;;7.53;;
75459;SDS011;64039;53.060;9.342;2023-02-15T07:23:02;10.15;;;6.88;;
75459;SDS011;64039;53.060;9.342;2023-02-15T07:25:28;10.35;;;6.60;;
75459;SDS011;64039;53.060;9.342;2023-02-15T07:28:00;11.75;;;7.35;;
75459;SDS011;64039;53.060;9.342;2023-02-15T07:30:27;10.38;;;6.95;;
75459;SDS011;64039;53.060;9.342;2023-02-15T07:32:56;10.07;;;7.00;;
75459;SDS011;64039;53.060;9.342;2023-02-15T07:35:47;10.48;;;7.05;;
75459;SDS011;64039;53.060;9.342;2023-02-15T07:38:17;24.30;;;12.60;;
75459;SDS011;64039;53.060;9.342;2023-02-15T07:40:44;20.10;;;9.98;;
75459;SDS011;64039;53.060;9.342;2023-02-15T07:43:10;10.25;;;6.95;;
75459;SDS011;64039;53.060;9.342;2023-02-15T07:45:37;10.40;;;7.32;;
75459;SDS011;64039;53.060;9.342;2023-02-15T07:48:02;12.10;;;7.35;;
75459;SDS011;64039;53.060;9.342;2023-02-15T07:50:29;11.20;;;7.28;;
75459;SDS011;64039;53.060;9.342;2023-02-15T07:52:55;11.18;;;7.28;;
75459;SDS011;64039;53.060;9.342;2023-02-15T07:55:20;14.95;;;8.70;;
75459;SDS011;64039;53.060;9.342;2023-02-15T07:57:46;13.90;;;8.73;;
75459;SDS011;64039;53.060;9.342;2023-02-15T08:00:15;11.98;;;7.70;;
75459;SDS011;64039;53.060;9.342;2023-02-15T08:02:46;12.35;;;7.78;;
75459;SDS011;64039;53.060;9.342;2023-02-15T08:05:13;12.50;;;7.88;;
75459;SDS011;64039;53.060;9.342;2023-02-15T08:07:39;12.90;;;8.10;;
75459;SDS011;64039;53.060;9.342;2023-02-15T08:10:04;12.93;;;8.07;;
75459;SDS011;64039;53.060;9.342;2023-02-15T08:12:30;11.55;;;7.75;;
75459;SDS011;64039;53.060;9.342;2023-02-15T08:14:56;14.85;;;8.63;;
75459;SDS011;64039;53.060;9.342;2023-02-15T08:17:21;11.82;;;7.82;;
75459;SDS011;64039;53.060;9.342;2023-02-15T08:19:47;10.50;;;7.57;;
75459;SDS011;64039;53.060;9.342;2023-02-15T08:22:13;11.68;;;7.78;;
75459;SDS011;64039;53.060;9.342;2023-02-15T08:24:39;13.57;;;8.68;;
75459;SDS011;64039;53.060;9.342;2023-02-15T08:27:07;11.77;;;7.88;;
75459;SDS011;64039;53.060;9.342;2023-02-15T08:29:34;14.30;;;8.65;;
75459;SDS011;64039;53.060;9.342;2023-02-15T08:32:02;14.25;;;8.35;;
75459;SDS011;64039;53.060;9.342;2023-02-15T08:34:31;12.68;;;8.05;;
75459;SDS011;64039;53.060;9.342;2023-02-15T08:36:58;12.95;;;8.38;;
75459;SDS011;64039;53.060;9.342;2023-02-15T08:39:23;14.23;;;9.13;;
75459;SDS011;64039;53.060;9.342;2023-02-15T08:41:49;14.07;;;9.07;;
75459;SDS011;64039;53.060;9.342;2023-02-15T08:44:16;14.50;;;8.48;;
75459;SDS011;64039;53.060;9.342;2023-02-15T08:46:43;15.32;;;9.27;;
75459;SDS011;64039;53.060;9.342;2023-02-15T08:49:11;14.20;;;8.80;;
75459;SDS011;64039;53.060;9.342;2023-02-15T08:51:38;13.88;;;8.80;;
75459;SDS011;64039;53.060;9.342;2023-02-15T08:54:05;14.95;;;9.60;;
75459;SDS011;64039;53.060;9.342;2023-02-15T08:56:34;15.10;;;8.93;;
75459;SDS011;64039;53.060;9.342;2023-02-15T08:59:01;14.88;;;9.68;;
75459;SDS011;64039;53.060;9.342;2023-02-15T09:01:29;16.70;;;9.55;;
75459;SDS011;64039;53.060;9.342;2023-02-15T09:03:56;19.33;;;10.27;;
75459;SDS011;64039;53.060;9.342;2023-02-15T09:06:23;16.58;;;9.82;;
75459;SDS011;64039;53.060;9.342;2023-02-15T09:08:49;16.45;;;9.15;;
75459;SDS011;64039;53.060;9.342;2023-02-15T09:11:20;15.60;;;9.80;;
75459;SDS011;64039;53.060;9.342;2023-02-15T09:13:48;17.38;;;10.63;;
75459;SDS011;64039;53.060;9.342;2023-02-15T09:16:16;16.10;;;10.20;;
75459;SDS011;64039;53.060;9.342;2023-02-15T09:18:42;23.63;;;12.60;;
75459;SDS011;64039;53.060;9.342;2023-02-15T09:21:15;25.05;;;13.73;;
75459;SDS011;64039;53.060;9.342;2023-02-15T09:23:47;26.25;;;13.93;;
75459;SDS011;64039;53.060;9.342;2023-02-15T09:26:18;20.48;;;12.52;;
75459;SDS011;64039;53.060;9.342;2023-02-15T09:28:45;21.95;;;12.25;;
75459;SDS011;64039;53.060;9.342;2023-02-15T09:31:12;20.23;;;12.27;;
75459;SDS011;64039;53.060;9.342;2023-02-15T09:33:40;21.52;;;12.32;;
75459;SDS011;64039;53.060;9.342;2023-02-15T09:36:28;18.50;;;11.10;;
75459;SDS011;64039;53.060;9.342;2023-02-15T09:39:08;17.38;;;10.75;;
75459;SDS011;64039;53.060;9.342;2023-02-15T09:47:23;18.58;;;11.13;;
75459;SDS011;64039;53.060;9.342;2023-02-15T09:50:24;19.02;;;11.40;;
75459;SDS011;64039;53.060;9.342;2023-02-15T10:01:45;19.40;;;11.98;;
75459;SDS011;64039;53.060;9.342;2023-02-15T10:07:14;20.08;;;12.18;;
75459;SDS011;64039;53.060;9.342;2023-02-15T10:09:47;19.27;;;11.60;;
75459;SDS011;64039;53.060;9.342;2023-02-15T10:20:27;21.15;;;12.27;;
75459;SDS011;64039;53.060;9.342;2023-02-15T10:28:23;19.95;;;11.90;;
75459;SDS011;64039;53.060;9.342;2023-02-15T10:31:11;21.85;;;12.95;;
75459;SDS011;64039;53.060;9.342;2023-02-15T10:33:42;21.13;;;12.20;;
75459;SDS011;64039;53.060;9.342;2023-02-15T10:39:02;24.23;;;13.55;;
75459;SDS011;64039;53.060;9.342;2023-02-15T10:44:38;21.42;;;12.93;;
75459;SDS011;64039;53.060;9.342;2023-02-15T10:50:08;23.00;;;13.13;;
75459;SDS011;64039;53.060;9.342;2023-02-15T10:53:10;24.67;;;14.38;;
75459;SDS011;64039;53.060;9.342;2023-02-15T10:56:10;22.85;;;13.30;;
75459;SDS011;64039;53.060;9.342;2023-02-15T11:06:31;19.92;;;12.68;;
75459;SDS011;64039;53.060;9.342;2023-02-15T11:09:01;23.15;;;13.77;;
75459;SDS011;64039;53.060;9.342;2023-02-15T11:11:35;21.98;;;13.15;;
75459;SDS011;64039;53.060;9.342;2023-02-15T11:14:10;24.15;;;13.65;;
75459;SDS011;64039;53.060;9.342;2023-02-15T11:16:41;25.05;;;13.68;;
75459;SDS011;64039;53.060;9.342;2023-02-15T11:21:44;21.67;;;13.18;;
75459;SDS011;64039;53.060;9.342;2023-02-15T11:24:16;22.08;;;13.15;;
75459;SDS011;64039;53.060;9.342;2023-02-15T11:26:44;23.30;;;14.10;;
75459;SDS011;64039;53.060;9.342;2023-02-15T11:29:25;23.33;;;14.10;;
75459;SDS011;64039;53.060;9.342;2023-02-15T11:32:43;21.58;;;12.93;;
75459;SDS011;64039;53.060;9.342;2023-02-15T11:37:45;22.58;;;13.73;;
75459;SDS011;64039;53.060;9.342;2023-02-15T11:40:32;21.92;;;13.68;;
75459;SDS011;64039;53.060;9.342;2023-02-15T11:43:01;25.42;;;15.00;;
75459;SDS011;64039;53.060;9.342;2023-02-15T11:45:32;26.58;;;14.50;;
75459;SDS011;64039;53.060;9.342;2023-02-15T11:47:59;23.17;;;14.60;;
75459;SDS011;64039;53.060;9.342;2023-02-15T11:50:30;23.60;;;14.63;;
75459;SDS011;64039;53.060;9.342;2023-02-15T11:53:09;25.92;;;14.57;;
75459;SDS011;64039;53.060;9.342;2023-02-15T11:55:41;24.85;;;14.90;;
75459;SDS011;64039;53.060;9.342;2023-02-15T11:58:12;23.05;;;14.13;;
75459;SDS011;64039;53.060;9.342;2023-02-15T12:00:50;24.65;;;14.68;;
75459;SDS011;64039;53.060;9.342;2023-02-15T12:03:21;30.73;;;18.02;;
75459;SDS011;64039;53.060;9.342;2023-02-15T12:05:55;28.83;;;16.48;;
75459;SDS011;64039;53.060;9.342;2023-02-15T12:08:25;24.15;;;14.80;;
75459;SDS011;64039;53.060;9.342;2023-02-15T12:11:22;24.98;;;14.82;;
75459;SDS011;64039;53.060;9.342;2023-02-15T12:16:40;26.67;;;15.07;;
75459;SDS011;64039;53.060;9.342;2023-02-15T12:19:20;24.02;;;14.45;;
75459;SDS011;64039;53.060;9.342;2023-02-15T12:21:56;24.45;;;15.35;;
75459;SDS011;64039;53.060;9.342;2023-02-15T12:24:25;24.73;;;15.38;;
75459;SDS011;64039;53.060;9.342;2023-02-15T12:29:41;28.00;;;16.02;;
75459;SDS011;64039;53.060;9.342;2023-02-15T12:35:18;28.15;;;17.05;;
75459;SDS011;64039;53.060;9.342;2023-02-15T12:37:53;27.83;;;16.33;;
75459;SDS011;64039;53.060;9.342;2023-02-15T12:40:25;25.67;;;15.82;;
75459;SDS011;64039;53.060;9.342;2023-02-15T12:42:53;26.50;;;16.23;;
75459;SDS011;64039;53.060;9.342;2023-02-15T12:45:20;27.40;;;15.85;;
75459;SDS011;64039;53.060;9.342;2023-02-15T12:47:46;28.17;;;16.60;;
75459;SDS011;64039;53.060;9.342;2023-02-15T12:50:32;28.95;;;16.92;;
75459;SDS011;64039;53.060;9.342;2023-02-15T12:53:08;27.38;;;16.50;;
75459;SDS011;64039;53.060;9.342;2023-02-15T12:55:38;27.85;;;16.83;;
75459;SDS011;64039;53.060;9.342;2023-02-15T12:58:07;29.17;;;16.92;;
75459;SDS011;64039;53.060;9.342;2023-02-15T13:00:41;29.20;;;17.15;;
75459;SDS011;64039;53.060;9.342;2023-02-15T13:03:14;28.20;;;17.33;;
75459;SDS011;64039;53.060;9.342;2023-02-15T13:05:44;33.10;;;19.13;;
75459;SDS011;64039;53.060;9.342;2023-02-15T13:08:18;30.77;;;17.42;;
75459;SDS011;64039;53.060;9.342;2023-02-15T13:13:35;31.38;;;17.92;;
75459;SDS011;64039;53.060;9.342;2023-02-15T13:16:12;28.92;;;18.27;;
75459;SDS011;64039;53.060;9.342;2023-02-15T13:18:43;31.13;;;17.88;;
75459;SDS011;64039;53.060;9.342;2023-02-15T13:21:11;29.63;;;18.42;;
75459;SDS011;64039;53.060;9.342;2023-02-15T13:26:50;32.65;;;19.33;;
75459;SDS011;64039;53.060;9.342;2023-02-15T13:29:37;33.25;;;18.83;;
75459;SDS011;64039;53.060;9.342;2023-02-15T13:32:10;29.35;;;17.55;;
75459;SDS011;64039;53.060;9.342;2023-02-15T13:34:50;31.13;;;17.77;;
75459;SDS011;64039;53.060;9.342;2023-02-15T13:40:06;28.30;;;17.55;;
75459;SDS011;64039;53.060;9.342;2023-02-15T13:42:38;27.65;;;15.57;;
75459;SDS011;64039;53.060;9.342;2023-02-15T13:56:12;25.27;;;14.18;;
75459;SDS011;64039;53.060;9.342;2023-02-15T14:01:43;27.40;;;14.18;;
75459;SDS011;64039;53.060;9.342;2023-02-15T14:09:40;25.20;;;13.88;;
75459;SDS011;64039;53.060;9.342;2023-02-15T14:17:52;30.40;;;14.07;;
75459;SDS011;64039;53.060;9.342;2023-02-15T14:23:22;24.33;;;13.65;;
75459;SDS011;64039;53.060;9.342;2023-02-15T14:26:06;28.02;;;14.88;;
75459;SDS011;64039;53.060;9.342;2023-02-15T14:31:16;25.70;;;13.82;;
75459;SDS011;64039;53.060;9.342;2023-02-15T14:33:50;27.02;;;14.88;;
75459;SDS011;64039;53.060;9.342;2023-02-15T14:36:20;27.48;;;13.45;;
75459;SDS011;64039;53.060;9.342;2023-02-15T14:41:36;24.80;;;13.35;;
75459;SDS011;64039;53.060;9.342;2023-02-15T14:44:16;27.60;;;14.23;;
75459;SDS011;64039;53.060;9.342;2023-02-15T14:49:23;26.50;;;13.70;;
75459;SDS011;64039;53.060;9.342;2023-02-15T14:56:42;25.75;;;13.18;;
75459;SDS011;64039;53.060;9.342;2023-02-15T14:59:38;27.60;;;13.80;;
75459;SDS011;64039;53.060;9.342;2023-02-15T15:02:21;26.55;;;12.98;;
75459;SDS011;64039;53.060;9.342;2023-02-15T15:07:37;27.02;;;14.15;;
75459;SDS011;64039;53.060;9.342;2023-02-15T15:12:48;27.00;;;13.70;;
75459;SDS011;64039;53.060;9.342;2023-02-15T15:15:32;26.25;;;13.82;;
75459;SDS011;64039;53.060;9.342;2023-02-15T15:21:10;24.00;;;13.10;;
75459;SDS011;64039;53.060;9.342;2023-02-15T15:26:34;24.52;;;13.45;;
75459;SDS011;64039;53.060;9.342;2023-02-15T15:29:03;27.33;;;13.68;;
75459;SDS011;64039;53.060;9.342;2023-02-15T15:31:43;28.38;;;14.27;;
75459;SDS011;64039;53.060;9.342;2023-02-15T15:50:31;25.25;;;14.43;;
75459;SDS011;64039;53.060;9.342;2023-02-15T15:52:59;25.42;;;13.82;;
75459;SDS011;64039;53.060;9.342;2023-02-15T15:55:28;23.80;;;13.75;;
75459;SDS011;64039;53.060;9.342;2023-02-15T15:57:59;26.85;;;14.57;;
75459;SDS011;64039;53.060;9.342;2023-02-15T16:03:01;33.15;;;18.02;;
75459;SDS011;64039;53.060;9.342;2023-02-15T16:05:34;35.38;;;18.48;;
75459;SDS011;64039;53.060;9.342;2023-02-15T16:08:01;31.48;;;17.00;;
75459;SDS011;64039;53.060;9.342;2023-02-15T16:10:27;27.75;;;15.45;;
75459;SDS011;64039;53.060;9.342;2023-02-15T16:12:57;26.63;;;15.18;;
75459;SDS011;64039;53.060;9.342;2023-02-15T16:15:29;24.98;;;14.55;;
75459;SDS011;64039;53.060;9.342;2023-02-15T16:17:59;28.30;;;14.13;;
75459;SDS011;64039;53.060;9.342;2023-02-15T16:20:27;26.48;;;14.98;;
75459;SDS011;64039;53.060;9.342;2023-02-15T16:23:08;26.13;;;13.52;;
75459;SDS011;64039;53.060;9.342;2023-02-15T16:26:17;23.58;;;13.68;;
75459;SDS011;64039;53.060;9.342;2023-02-15T16:28:58;26.80;;;13.70;;
75459;SDS011;64039;53.060;9.342;2023-02-15T16:31:23;25.95;;;14.13;;
75459;SDS011;64039;53.060;9.342;2023-02-15T16:33:54;24.58;;;13.38;;
75459;SDS011;64039;53.060;9.342;2023-02-15T16:36:27;25.33;;;13.65;;
75459;SDS011;64039;53.060;9.342;2023-02-15T16:41:25;25.38;;;13.02;;
75459;SDS011;64039;53.060;9.342;2023-02-15T16:43:54;30.83;;;14.73;;
75459;SDS011;64039;53.060;9.342;2023-02-15T16:46:25;27.55;;;14.23;;
75459;SDS011;64039;53.060;9.342;2023-02-15T16:49:17;24.80;;;12.98;;
75459;SDS011;64039;53.060;9.342;2023-02-15T16:51:54;27.92;;;13.60;;
75459;SDS011;64039;53.060;9.342;2023-02-15T16:54:34;27.23;;;14.43;;
75459;SDS011;64039;53.060;9.342;2023-02-15T16:57:00;25.73;;;13.82;;
75459;SDS011;64039;53.060;9.342;2023-02-15T17:02:03;26.25;;;13.32;;
75459;SDS011;64039;53.060;9.342;2023-02-15T17:04:31;26.25;;;14.20;;
75459;SDS011;64039;53.060;9.342;2023-02-15T17:07:32;28.55;;;14.60;;
75459;SDS011;64039;53.060;9.342;2023-02-15T17:09:52;26.67;;;13.68;;
75459;SDS011;64039;53.060;9.342;2023-02-15T17:12:54;24.38;;;12.95;;
75459;SDS011;64039;53.060;9.342;2023-02-15T17:15:41;26.38;;;14.30;;
75459;SDS011;64039;53.060;9.342;2023-02-15T17:18:20;27.10;;;14.55;;
75459;SDS011;64039;53.060;9.342;2023-02-15T17:20:48;27.77;;;14.45;;
75459;SDS011;64039;53.060;9.342;2023-02-15T17:25:56;31.38;;;14.63;;
75459;SDS011;64039;53.060;9.342;2023-02-15T17:28:23;31.60;;;15.32;;
75459;SDS011;64039;53.060;9.342;2023-02-15T17:30:52;31.33;;;16.70;;
75459;SDS011;64039;53.060;9.342;2023-02-15T17:33:26;27.25;;;14.27;;
75459;SDS011;64039;53.060;9.342;2023-02-15T17:36:03;24.35;;;13.57;;
75459;SDS011;64039;53.060;9.342;2023-02-15T17:38:58;29.23;;;15.70;;
75459;SDS011;64039;53.060;9.342;2023-02-15T17:41:43;24.88;;;14.52;;
75459;SDS011;64039;53.060;9.342;2023-02-15T17:44:09;27.98;;;15.57;;
75459;SDS011;64039;53.060;9.342;2023-02-15T17:46:39;29.70;;;16.08;;
75459;SDS011;64039;53.060;9.342;2023-02-15T17:49:06;30.90;;;14.82;;
75459;SDS011;64039;53.060;9.342;2023-02-15T17:51:32;28.73;;;14.13;;
75459;SDS011;64039;53.060;9.342;2023-02-15T17:54:00;29.35;;;14.38;;
75459;SDS011;64039;53.060;9.342;2023-02-15T17:56:45;29.52;;;14.45;;
75459;SDS011;64039;53.060;9.342;2023-02-15T17:59:12;25.00;;;13.25;;